createdAt,value
2022-11-27T00:00:31.195Z,5.80
2022-11-27T00:03:03.166Z,3.67
2022-11-27T00:05:35.032Z,3.50
2022-11-27T00:08:06.806Z,3.87
2022-11-27T00:10:38.546Z,6.30
2022-11-27T00:13:10.309Z,4.10
2022-11-27T00:15:42.780Z,3.27
2022-11-27T00:18:14.591Z,3.60
2022-11-27T00:20:46.329Z,3.63
2022-11-27T00:23:18.078Z,2.00
2022-11-27T00:25:51.722Z,7.00
2022-11-27T00:28:23.584Z,2.47
2022-11-27T00:30:59.802Z,4.03
2022-11-27T00:33:31.808Z,3.93
2022-11-27T00:36:07.908Z,3.37
2022-11-27T00:38:40.219Z,4.27
2022-11-27T00:41:18.798Z,6.30
2022-11-27T00:43:51.366Z,3.70
2022-11-27T00:46:28.660Z,4.97
2022-11-27T00:49:03.315Z,2.67
2022-11-27T00:51:35.549Z,3.93
2022-11-27T00:54:08.030Z,3.87
2022-11-27T00:56:40.301Z,2.13
2022-11-27T00:59:12.045Z,5.83
2022-11-27T01:01:44.625Z,2.00
2022-11-27T01:04:17.077Z,2.43
2022-11-27T01:06:48.954Z,3.07
2022-11-27T01:09:20.658Z,4.93
2022-11-27T01:11:52.538Z,3.40
2022-11-27T01:14:24.282Z,3.23
2022-11-27T01:16:56.111Z,2.67
2022-11-27T01:19:27.860Z,2.63
2022-11-27T01:21:59.606Z,3.27
2022-11-27T01:24:31.337Z,4.20
2022-11-27T01:27:03.188Z,2.67
2022-11-27T01:29:34.926Z,3.73
2022-11-27T01:32:06.638Z,2.50
2022-11-27T01:34:38.669Z,2.97
2022-11-27T01:37:11.017Z,4.20
2022-11-27T01:39:46.127Z,6.50
2022-11-27T01:42:18.351Z,4.27
2022-11-27T01:44:53.172Z,3.03
2022-11-27T01:47:52.116Z,5.80
2022-11-27T01:50:36.817Z,5.90
2022-11-27T01:53:19.270Z,5.77
2022-11-27T01:55:57.897Z,2.50
2022-11-27T01:58:31.363Z,2.70
2022-11-27T02:01:05.371Z,11.93
2022-11-27T02:03:39.979Z,3.57
2022-11-27T02:06:15.076Z,3.33
2022-11-27T02:08:47.030Z,2.97
2022-11-27T02:11:36.062Z,4.47
2022-11-27T02:14:18.906Z,6.50
2022-11-27T02:17:03.726Z,4.20
2022-11-27T02:20:12.617Z,3.70
2022-11-27T02:23:13.732Z,3.40
2022-11-27T02:26:00.584Z,3.33
2022-11-27T02:29:11.476Z,4.07
2022-11-27T02:31:57.237Z,4.57
2022-11-27T02:35:04.500Z,3.30
2022-11-27T02:38:02.196Z,6.63
2022-11-27T02:40:42.912Z,2.57
2022-11-27T02:43:28.703Z,3.40
2022-11-27T02:46:02.488Z,2.53
2022-11-27T02:48:54.351Z,2.47
2022-11-27T02:51:33.649Z,9.57
2022-11-27T02:54:08.750Z,8.47
2022-11-27T02:56:42.183Z,3.33
2022-11-27T02:59:17.585Z,6.23
2022-11-27T03:01:54.396Z,3.47
2022-11-27T03:04:34.358Z,3.30
2022-11-27T03:07:12.380Z,2.83
2022-11-27T03:09:47.719Z,2.87
2022-11-27T03:12:19.772Z,3.40
2022-11-27T03:14:51.498Z,3.50
2022-11-27T03:17:44.593Z,6.80
2022-11-27T03:20:37.150Z,5.30
2022-11-27T03:23:09.058Z,7.27
2022-11-27T03:25:40.822Z,6.03
2022-11-27T03:28:14.693Z,15.70
2022-11-27T03:30:46.827Z,17.83
2022-11-27T03:33:18.602Z,4.90
2022-11-27T03:35:52.881Z,3.23
2022-11-27T03:38:24.713Z,3.37
2022-11-27T03:41:06.002Z,3.60
2022-11-27T03:43:55.279Z,2.77
2022-11-27T03:46:46.468Z,2.77
2022-11-27T03:49:46.431Z,4.27
2022-11-27T03:52:23.903Z,5.37
2022-11-27T03:55:01.771Z,2.47
2022-11-27T03:57:55.337Z,2.97
2022-11-27T04:00:35.851Z,3.53
2022-11-27T04:03:11.985Z,5.47
2022-11-27T04:05:43.775Z,3.37
2022-11-27T04:08:15.507Z,4.60
2022-11-27T04:10:47.723Z,2.90
2022-11-27T04:13:19.442Z,8.70
2022-11-27T04:15:51.225Z,4.30
2022-11-27T04:18:22.970Z,2.37
2022-11-27T04:20:54.805Z,2.53
2022-11-27T04:23:26.707Z,3.77
2022-11-27T04:25:58.433Z,4.93
2022-11-27T04:28:30.645Z,3.73
2022-11-27T04:31:02.497Z,5.90
2022-11-27T04:33:34.318Z,4.57
2022-11-27T04:36:06.353Z,2.83
2022-11-27T04:38:38.054Z,3.37
2022-11-27T04:41:09.785Z,4.60
2022-11-27T04:43:41.496Z,7.37
2022-11-27T04:46:13.259Z,3.03
2022-11-27T04:48:45.007Z,4.10
2022-11-27T04:51:16.716Z,6.20
2022-11-27T04:53:48.454Z,6.70
2022-11-27T04:56:20.274Z,10.00
2022-11-27T04:58:52.250Z,6.77
2022-11-27T05:01:24.060Z,3.83
2022-11-27T05:03:55.800Z,3.03
2022-11-27T05:06:27.580Z,5.47
2022-11-27T05:09:02.250Z,5.93
2022-11-27T05:11:34.525Z,5.90
2022-11-27T05:14:15.245Z,4.33
2022-11-27T05:16:51.202Z,6.80
2022-11-27T05:19:25.088Z,14.20
2022-11-27T05:21:56.992Z,8.23
2022-11-27T05:24:29.852Z,8.50
2022-11-27T05:27:01.708Z,6.23
2022-11-27T05:29:33.636Z,5.47
2022-11-27T05:32:05.642Z,9.10
2022-11-27T05:34:37.425Z,7.23
2022-11-27T05:37:09.302Z,7.30
2022-11-27T05:39:41.367Z,9.73
2022-11-27T05:42:13.098Z,7.97
2022-11-27T05:44:44.859Z,11.23
2022-11-27T05:47:16.553Z,6.37
2022-11-27T05:49:48.234Z,8.87
2022-11-27T05:52:20.293Z,8.03
2022-11-27T05:54:52.080Z,11.50
2022-11-27T05:57:23.974Z,6.67
2022-11-27T05:59:55.681Z,6.57
2022-11-27T06:02:29.547Z,9.97
2022-11-27T06:05:01.465Z,5.87
2022-11-27T06:07:33.344Z,6.23
2022-11-27T06:10:05.766Z,6.77
2022-11-27T06:12:37.486Z,6.43
2022-11-27T06:15:09.514Z,9.73
2022-11-27T06:17:41.222Z,4.27
2022-11-27T06:20:13.069Z,9.00
2022-11-27T06:22:44.793Z,6.37
2022-11-27T06:25:16.771Z,11.93
2022-11-27T06:27:48.579Z,6.57
2022-11-27T06:30:20.581Z,7.67
2022-11-27T06:32:55.153Z,8.70
2022-11-27T06:35:26.851Z,10.63
2022-11-27T06:37:58.569Z,5.17
2022-11-27T06:40:30.255Z,7.73
2022-11-27T06:43:01.986Z,8.87
2022-11-27T06:45:33.799Z,15.40
2022-11-27T06:48:05.606Z,5.30
2022-11-27T06:50:37.316Z,5.80
2022-11-27T06:53:09.028Z,6.13
2022-11-27T06:55:41.045Z,8.00
2022-11-27T06:58:12.766Z,5.37
2022-11-27T07:00:44.550Z,4.17
2022-11-27T07:03:16.377Z,9.60
2022-11-27T07:05:48.082Z,3.67
2022-11-27T07:08:19.974Z,4.37
2022-11-27T07:10:51.735Z,7.80
2022-11-27T07:13:23.433Z,9.43
2022-11-27T07:15:55.208Z,3.77
2022-11-27T07:18:26.942Z,15.83
2022-11-27T07:20:58.646Z,9.17
2022-11-27T07:23:31.355Z,4.67
2022-11-27T07:26:12.478Z,3.17
2022-11-27T07:28:45.143Z,4.17
2022-11-27T07:31:22.824Z,7.60
2022-11-27T07:33:55.023Z,4.43
2022-11-27T07:36:29.990Z,6.40
2022-11-27T07:39:01.714Z,5.03
2022-11-27T07:41:34.220Z,8.53
2022-11-27T07:44:06.188Z,7.53
2022-11-27T07:46:37.922Z,3.80
2022-11-27T07:49:09.632Z,3.97
2022-11-27T07:51:41.505Z,6.90
2022-11-27T07:54:13.415Z,6.40
2022-11-27T07:56:48.168Z,7.17
2022-11-27T07:59:19.967Z,21.37
2022-11-27T08:01:51.820Z,6.63
2022-11-27T08:04:24.349Z,10.13
2022-11-27T08:06:57.369Z,7.50
2022-11-27T08:09:30.132Z,10.57
2022-11-27T08:12:01.841Z,15.73
2022-11-27T08:14:33.802Z,10.10
2022-11-27T08:17:05.534Z,12.53
2022-11-27T08:19:37.269Z,9.37
2022-11-27T08:22:16.880Z,7.47
2022-11-27T08:24:48.943Z,10.87
2022-11-27T08:27:20.733Z,12.80
2022-11-27T08:29:52.467Z,7.37
2022-11-27T08:32:24.177Z,9.07
2022-11-27T08:34:56.114Z,12.47
2022-11-27T08:37:27.838Z,14.83
2022-11-27T08:39:59.548Z,10.97
2022-11-27T08:42:31.391Z,10.90
2022-11-27T08:45:03.306Z,10.60
2022-11-27T08:47:35.105Z,9.67
2022-11-27T08:50:07.646Z,9.63
2022-11-27T08:52:39.544Z,11.63
2022-11-27T08:55:11.305Z,9.27
2022-11-27T08:57:43.000Z,8.80
2022-11-27T09:00:15.324Z,12.93
2022-11-27T09:02:47.037Z,9.57
2022-11-27T09:05:19.070Z,11.13
2022-11-27T09:07:51.259Z,9.77
2022-11-27T09:10:23.324Z,9.60
2022-11-27T09:12:56.458Z,12.17
2022-11-27T09:15:28.212Z,10.00
2022-11-27T09:18:00.017Z,12.90
2022-11-27T09:20:31.752Z,12.20
2022-11-27T09:23:04.142Z,17.07
2022-11-27T09:25:39.161Z,13.80
2022-11-27T09:28:10.971Z,16.83
2022-11-27T09:30:42.747Z,15.13
2022-11-27T09:33:14.458Z,17.97
2022-11-27T09:35:46.161Z,12.70
2022-11-27T09:38:18.092Z,12.33
2022-11-27T09:40:52.683Z,11.03
2022-11-27T09:43:30.448Z,10.63
2022-11-27T09:46:09.296Z,12.53
2022-11-27T09:48:42.213Z,15.93
2022-11-27T09:51:31.969Z,12.07
2022-11-27T09:54:18.582Z,13.63
2022-11-27T09:56:53.620Z,11.20
2022-11-27T09:59:36.273Z,17.43
2022-11-27T10:02:29.772Z,12.00
2022-11-27T10:05:13.722Z,13.07
2022-11-27T10:08:06.936Z,14.50
2022-11-27T10:10:59.357Z,11.53
2022-11-27T10:14:05.443Z,9.40
2022-11-27T10:17:04.309Z,11.83
2022-11-27T10:20:13.775Z,11.10
2022-11-27T10:22:59.393Z,11.43
2022-11-27T10:25:45.661Z,13.00
2022-11-27T10:28:34.307Z,17.03
2022-11-27T10:31:37.046Z,18.30
2022-11-27T10:34:29.568Z,17.77
2022-11-27T10:37:06.551Z,14.00
2022-11-27T10:39:44.839Z,14.67
2022-11-27T10:42:41.117Z,13.37
2022-11-27T10:45:54.588Z,15.27
2022-11-27T10:48:28.475Z,16.23
2022-11-27T10:51:00.494Z,15.93
2022-11-27T10:53:35.049Z,11.37
2022-11-27T10:56:07.058Z,12.80
2022-11-27T10:58:59.202Z,13.27
2022-11-27T11:01:46.473Z,13.67
2022-11-27T11:04:41.471Z,13.23
2022-11-27T11:07:28.328Z,27.40
2022-11-27T11:10:00.478Z,16.87
2022-11-27T11:12:33.103Z,14.23
2022-11-27T11:15:12.665Z,15.63
2022-11-27T11:17:44.419Z,9.63
2022-11-27T11:20:21.849Z,17.33
2022-11-27T11:22:54.215Z,8.37
2022-11-27T11:25:25.973Z,17.27
2022-11-27T11:27:58.044Z,13.63
2022-11-27T11:30:30.379Z,11.07
2022-11-27T11:33:03.755Z,11.13
2022-11-27T11:35:36.781Z,10.47
2022-11-27T11:38:17.820Z,12.07
2022-11-27T11:41:07.746Z,10.43
2022-11-27T11:43:40.075Z,13.33
2022-11-27T11:46:22.891Z,13.30
2022-11-27T11:49:27.181Z,9.87
2022-11-27T11:52:11.910Z,18.37
2022-11-27T11:55:08.323Z,14.10
2022-11-27T11:58:03.499Z,9.20
2022-11-27T12:01:11.850Z,10.93
2022-11-27T12:03:50.102Z,12.87
2022-11-27T12:06:44.087Z,12.33
2022-11-27T12:09:29.198Z,13.43
2022-11-27T12:12:21.175Z,19.23
2022-11-27T12:15:07.606Z,17.57
2022-11-27T12:18:05.077Z,12.90
2022-11-27T12:20:45.577Z,14.17
2022-11-27T12:23:29.526Z,21.27
2022-11-27T12:26:25.904Z,17.07
2022-11-27T12:29:04.135Z,12.43
2022-11-27T12:31:53.149Z,12.27
2022-11-27T12:34:39.368Z,10.87
2022-11-27T12:37:49.807Z,13.33
2022-11-27T12:40:36.626Z,11.63
2022-11-27T12:43:30.376Z,18.83
2022-11-27T12:46:22.034Z,18.27
2022-11-27T12:48:59.030Z,15.37
2022-11-27T12:51:46.576Z,12.03
2022-11-27T12:54:27.805Z,10.70
2022-11-27T12:57:04.323Z,17.00
2022-11-27T12:59:43.482Z,14.03
2022-11-27T13:02:33.365Z,16.40
2022-11-27T13:05:07.249Z,14.80
2022-11-27T13:07:56.899Z,17.07
2022-11-27T13:10:38.272Z,15.90
2022-11-27T13:13:34.176Z,13.67
2022-11-27T13:16:23.991Z,16.20
2022-11-27T13:19:10.346Z,12.77
2022-11-27T13:21:43.442Z,17.23
2022-11-27T13:24:15.887Z,13.13
2022-11-27T13:27:00.907Z,14.70
2022-11-27T13:29:55.501Z,15.07
2022-11-27T13:32:31.264Z,9.77
2022-11-27T13:35:19.085Z,14.03
2022-11-27T13:38:02.771Z,15.23
2022-11-27T13:40:44.436Z,13.97
2022-11-27T13:43:20.449Z,15.23
2022-11-27T13:46:19.297Z,21.57
2022-11-27T13:49:03.554Z,13.43
2022-11-27T13:51:40.062Z,13.03
2022-11-27T13:54:14.658Z,12.60
2022-11-27T13:56:47.682Z,12.07
2022-11-27T13:59:26.097Z,10.80
2022-11-27T14:02:00.976Z,14.20
2022-11-27T14:04:34.287Z,19.10
2022-11-27T14:07:10.222Z,16.90
2022-11-27T14:09:51.578Z,12.83
2022-11-27T14:12:31.346Z,11.97
2022-11-27T14:15:06.839Z,13.73
2022-11-27T14:17:46.273Z,11.87
2022-11-27T14:20:18.034Z,12.10
2022-11-27T14:23:12.722Z,13.23
2022-11-27T14:25:45.097Z,15.87
2022-11-27T14:28:27.439Z,12.87
2022-11-27T14:31:01.365Z,16.10
2022-11-27T14:33:47.414Z,10.10
2022-11-27T14:36:30.146Z,11.53
2022-11-27T14:39:03.366Z,8.87
2022-11-27T14:41:35.072Z,11.10
2022-11-27T14:44:14.707Z,10.60
2022-11-27T14:46:46.705Z,15.47
2022-11-27T14:49:20.179Z,8.23
2022-11-27T14:51:52.455Z,12.83
2022-11-27T14:54:27.742Z,14.53
2022-11-27T14:56:59.465Z,14.77
2022-11-27T14:59:31.440Z,10.47
2022-11-27T15:02:12.345Z,7.70
2022-11-27T15:04:46.308Z,9.47
2022-11-27T15:07:22.789Z,9.70
2022-11-27T15:09:57.098Z,13.27
2022-11-27T15:12:45.164Z,7.17
2022-11-27T15:15:26.431Z,9.83
2022-11-27T15:18:01.794Z,17.63
2022-11-27T15:20:41.019Z,9.70
2022-11-27T15:23:32.091Z,8.30
2022-11-27T15:26:11.002Z,8.30
2022-11-27T15:28:55.174Z,8.20
2022-11-27T15:31:34.131Z,7.37
2022-11-27T15:34:17.657Z,11.77
2022-11-27T15:37:01.442Z,10.93
2022-11-27T15:39:38.103Z,8.37
2022-11-27T15:42:10.619Z,12.27
2022-11-27T15:44:42.818Z,10.57
2022-11-27T15:47:31.287Z,7.27
2022-11-27T15:50:03.801Z,6.30
2022-11-27T15:52:35.723Z,6.80
2022-11-27T15:55:12.230Z,7.87
2022-11-27T15:57:43.998Z,8.50
2022-11-27T16:00:16.302Z,8.73
2022-11-27T16:02:48.378Z,12.40
2022-11-27T16:05:21.241Z,9.73
2022-11-27T16:07:55.384Z,9.10
2022-11-27T16:10:27.502Z,8.37
2022-11-27T16:12:59.261Z,10.00
2022-11-27T16:15:33.134Z,11.00
2022-11-27T16:18:07.092Z,6.80
2022-11-27T16:20:38.924Z,9.10
2022-11-27T16:23:10.713Z,6.57
2022-11-27T16:25:42.468Z,9.63
2022-11-27T16:28:14.224Z,9.20
2022-11-27T16:30:47.409Z,11.23
2022-11-27T16:33:21.245Z,7.73
2022-11-27T16:35:53.597Z,13.97
2022-11-27T16:38:26.166Z,9.27
2022-11-27T16:41:03.820Z,7.03
2022-11-27T16:43:42.431Z,7.83
2022-11-27T16:46:16.299Z,10.20
2022-11-27T16:48:49.814Z,7.43
2022-11-27T16:51:24.414Z,9.80
2022-11-27T16:53:58.361Z,9.53
2022-11-27T16:56:31.882Z,12.43
2022-11-27T16:59:08.561Z,15.90
2022-11-27T17:01:42.270Z,9.80
2022-11-27T17:04:20.077Z,12.07
2022-11-27T17:06:51.938Z,8.43
2022-11-27T17:09:25.999Z,8.37
2022-11-27T17:11:57.787Z,6.30
2022-11-27T17:14:37.211Z,10.80
2022-11-27T17:17:12.453Z,7.23
2022-11-27T17:19:44.771Z,5.67
2022-11-27T17:22:16.594Z,6.10
2022-11-27T17:24:48.436Z,11.93
2022-11-27T17:27:20.789Z,10.87
2022-11-27T17:29:52.628Z,10.23
2022-11-27T17:32:25.022Z,10.33
2022-11-27T17:34:58.877Z,12.73
2022-11-27T17:37:31.428Z,6.73
2022-11-27T17:40:03.378Z,9.63
2022-11-27T17:42:35.093Z,9.20
2022-11-27T17:45:07.790Z,8.10
2022-11-27T17:47:39.772Z,9.27
2022-11-27T17:50:13.107Z,10.13
2022-11-27T17:52:44.970Z,8.67
2022-11-27T17:55:18.237Z,15.10
2022-11-27T17:57:51.151Z,13.00
2022-11-27T18:00:22.874Z,7.67
2022-11-27T18:02:54.647Z,8.60
2022-11-27T18:05:29.697Z,7.37
2022-11-27T18:08:01.732Z,12.90
2022-11-27T18:10:34.529Z,10.67
2022-11-27T18:13:07.537Z,8.23
2022-11-27T18:15:39.684Z,8.43
2022-11-27T18:18:11.595Z,10.17
2022-11-27T18:20:43.723Z,9.10
2022-11-27T18:23:16.149Z,9.73
2022-11-27T18:25:49.141Z,13.03
2022-11-27T18:28:21.098Z,13.23
2022-11-27T18:30:53.487Z,8.90
2022-11-27T18:33:25.277Z,10.63
2022-11-27T18:35:57.188Z,9.10
2022-11-27T18:38:31.909Z,10.37
2022-11-27T18:41:10.290Z,7.87
2022-11-27T18:43:43.196Z,19.77
2022-11-27T18:46:16.593Z,9.63
2022-11-27T18:48:49.811Z,15.57
2022-11-27T18:51:24.018Z,12.30
2022-11-27T18:53:56.821Z,14.43
2022-11-27T18:56:31.120Z,9.07
2022-11-27T18:59:05.973Z,13.07
2022-11-27T19:01:42.333Z,10.73
2022-11-27T19:04:15.117Z,15.20
2022-11-27T19:06:47.989Z,15.17
2022-11-27T19:09:20.395Z,17.73
2022-11-27T19:11:54.145Z,16.77
2022-11-27T19:14:26.218Z,15.97
2022-11-27T19:16:58.581Z,17.47
2022-11-27T19:22:26.061Z,13.97
2022-11-27T19:25:00.685Z,14.83
2022-11-27T19:27:33.321Z,12.57
2022-11-27T19:30:09.402Z,13.13
2022-11-27T19:32:41.441Z,13.60
2022-11-27T19:35:13.471Z,15.73
2022-11-27T19:37:45.303Z,12.97
2022-11-27T19:40:17.957Z,15.30
2022-11-27T19:42:54.591Z,16.33
2022-11-27T19:45:29.899Z,12.43
2022-11-27T19:48:02.275Z,14.17
2022-11-27T19:50:34.685Z,14.03
2022-11-27T19:53:07.302Z,14.07
2022-11-27T19:55:39.198Z,13.13
2022-11-27T19:58:12.471Z,11.23
2022-11-27T20:00:44.381Z,11.50
2022-11-27T20:03:19.042Z,14.30
2022-11-27T20:06:15.051Z,12.30
2022-11-27T20:08:49.645Z,11.30
2022-11-27T20:11:23.240Z,14.77
2022-11-27T20:13:59.649Z,11.37
2022-11-27T20:16:34.055Z,12.47
2022-11-27T20:19:06.153Z,11.33
2022-11-27T20:21:41.886Z,11.03
2022-11-27T20:24:14.835Z,7.03
2022-11-27T20:26:46.752Z,16.77
2022-11-27T20:29:19.538Z,9.87
2022-11-27T20:31:52.472Z,11.27
2022-11-27T20:34:24.391Z,9.43
2022-11-27T20:36:57.531Z,10.50
2022-11-27T20:39:29.446Z,12.50
2022-11-27T20:42:01.184Z,14.63
2022-11-27T20:44:33.186Z,9.77
2022-11-27T20:47:04.927Z,11.63
2022-11-27T20:49:37.724Z,12.57
2022-11-27T20:52:11.348Z,11.30
2022-11-27T20:54:43.294Z,10.33
2022-11-27T20:57:15.089Z,12.70
2022-11-27T20:59:47.375Z,12.77
2022-11-27T21:02:19.297Z,10.80
2022-11-27T21:04:51.258Z,9.20
2022-11-27T21:07:23.035Z,6.87
2022-11-27T21:09:55.484Z,10.27
2022-11-27T21:12:27.700Z,14.23
2022-11-27T21:14:59.456Z,7.07
2022-11-27T21:17:31.622Z,11.07
2022-11-27T21:20:04.421Z,11.50
2022-11-27T21:22:36.629Z,10.70
2022-11-27T21:25:08.637Z,8.07
2022-11-27T21:27:40.478Z,17.77
2022-11-27T21:30:12.875Z,10.83
2022-11-27T21:32:44.620Z,8.93
2022-11-27T21:35:16.608Z,9.87
2022-11-27T21:37:48.337Z,10.20
2022-11-27T21:40:20.533Z,17.13
2022-11-27T21:42:52.784Z,11.73
2022-11-27T21:45:24.634Z,10.47
2022-11-27T21:47:56.381Z,18.40
2022-11-27T21:50:28.247Z,11.87
2022-11-27T21:53:00.683Z,12.57
2022-11-27T21:55:32.629Z,17.27
2022-11-27T21:58:04.335Z,11.73
2022-11-27T22:00:36.905Z,8.27
2022-11-27T22:03:08.646Z,25.20
2022-11-27T22:05:40.393Z,11.40
2022-11-27T22:08:12.122Z,9.03
2022-11-27T22:10:45.709Z,8.37
2022-11-27T22:13:17.445Z,8.53
2022-11-27T22:15:49.302Z,8.97
2022-11-27T22:18:21.168Z,10.80
2022-11-27T22:20:54.226Z,8.70
2022-11-27T22:23:25.922Z,8.80
2022-11-27T22:26:02.174Z,12.50
2022-11-27T22:28:37.729Z,22.87
2022-11-27T22:31:20.619Z,13.20
2022-11-27T22:33:53.541Z,5.87
2022-11-27T22:36:30.399Z,15.23
2022-11-27T22:39:05.747Z,8.93
2022-11-27T22:41:39.619Z,9.87
2022-11-27T22:44:15.732Z,10.73
2022-11-27T22:46:48.106Z,16.27
2022-11-27T22:49:20.441Z,13.80
2022-11-27T22:51:53.364Z,10.47
2022-11-27T22:54:25.837Z,9.20
2022-11-27T22:56:59.412Z,11.77
2022-11-27T22:59:33.271Z,9.87
2022-11-27T23:02:06.856Z,11.97
2022-11-27T23:04:38.978Z,11.23
2022-11-27T23:07:11.046Z,7.30
2022-11-27T23:09:43.660Z,13.40
2022-11-27T23:12:15.370Z,12.73
2022-11-27T23:14:47.073Z,11.50
2022-11-27T23:17:18.762Z,12.33
2022-11-27T23:19:50.440Z,9.40
2022-11-27T23:22:22.147Z,12.33
2022-11-27T23:24:54.162Z,14.33
2022-11-27T23:27:25.960Z,11.53
2022-11-27T23:29:57.738Z,11.10
2022-11-27T23:32:29.526Z,11.37
2022-11-27T23:35:01.383Z,14.60
2022-11-27T23:37:33.115Z,10.67
2022-11-27T23:40:05.527Z,16.30
2022-11-27T23:42:37.242Z,13.13
2022-11-27T23:45:09.661Z,14.03
2022-11-27T23:47:41.574Z,9.00
2022-11-27T23:50:13.354Z,11.57
2022-11-27T23:52:45.085Z,11.20
2022-11-27T23:55:16.810Z,16.57
2022-11-27T23:57:48.619Z,12.00
